sensor_id;sensor_type;location;lat;lon;timestamp;P1;durP1;ratioP1;P2;durP2;ratioP2
40286;SDS011;25998;46.604;13.610;2023-05-21T00:00:11;13.25;;;11.85;;
40286;SDS011;25998;46.604;13.610;2023-05-21T00:03:22;16.23;;;12.88;;
40286;SDS011;25998;46.604;13.610;2023-05-21T00:06:35;13.43;;;12.10;;
40286;SDS011;25998;46.604;13.610;2023-05-21T00:09:46;15.32;;;13.73;;
40286;SDS011;25998;46.604;13.610;2023-05-21T00:12:57;14.10;;;12.60;;
40286;SDS011;25998;46.604;13.610;2023-05-21T00:16:08;14.25;;;12.75;;
40286;SDS011;25998;46.604;13.610;2023-05-21T00:19:20;13.90;;;12.32;;
40286;SDS011;25998;46.604;13.610;2023-05-21T00:22:31;13.82;;;12.43;;
40286;SDS011;25998;46.604;13.610;2023-05-21T00:25:45;15.05;;;13.55;;
40286;SDS011;25998;46.604;13.610;2023-05-21T00:28:57;17.45;;;12.95;;
40286;SDS011;25998;46.604;13.610;2023-05-21T00:32:07;14.93;;;12.00;;
40286;SDS011;25998;46.604;13.610;2023-05-21T00:35:18;15.27;;;11.77;;
40286;SDS011;25998;46.604;13.610;2023-05-21T00:38:29;12.60;;;11.38;;
40286;SDS011;25998;46.604;13.610;2023-05-21T00:41:41;14.32;;;12.93;;
40286;SDS011;25998;46.604;13.610;2023-05-21T00:44:55;15.32;;;13.80;;
40286;SDS011;25998;46.604;13.610;2023-05-21T00:48:07;14.18;;;12.65;;
40286;SDS011;25998;46.604;13.610;2023-05-21T00:51:18;14.65;;;13.13;;
40286;SDS011;25998;46.604;13.610;2023-05-21T00:54:31;14.32;;;12.93;;
40286;SDS011;25998;46.604;13.610;2023-05-21T00:57:42;14.07;;;12.63;;
40286;SDS011;25998;46.604;13.610;2023-05-21T01:00:52;14.15;;;12.43;;
40286;SDS011;25998;46.604;13.610;2023-05-21T01:04:07;14.52;;;13.23;;
40286;SDS011;25998;46.604;13.610;2023-05-21T01:07:18;14.00;;;12.60;;
40286;SDS011;25998;46.604;13.610;2023-05-21T01:10:29;13.27;;;11.98;;
40286;SDS011;25998;46.604;13.610;2023-05-21T01:13:40;13.68;;;12.00;;
40286;SDS011;25998;46.604;13.610;2023-05-21T01:16:52;13.85;;;11.60;;
40286;SDS011;25998;46.604;13.610;2023-05-21T01:20:03;13.68;;;12.38;;
40286;SDS011;25998;46.604;13.610;2023-05-21T01:23:21;14.68;;;13.23;;
40286;SDS011;25998;46.604;13.610;2023-05-21T01:26:32;13.70;;;12.30;;
40286;SDS011;25998;46.604;13.610;2023-05-21T01:29:48;16.27;;;14.18;;
40286;SDS011;25998;46.604;13.610;2023-05-21T01:33:02;14.57;;;13.15;;
40286;SDS011;25998;46.604;13.610;2023-05-21T01:36:19;15.60;;;13.30;;
40286;SDS011;25998;46.604;13.610;2023-05-21T01:39:37;13.82;;;12.43;;
40286;SDS011;25998;46.604;13.610;2023-05-21T01:42:51;14.85;;;12.75;;
40286;SDS011;25998;46.604;13.610;2023-05-21T01:46:02;13.52;;;12.13;;
40286;SDS011;25998;46.604;13.610;2023-05-21T01:49:16;15.90;;;14.30;;
40286;SDS011;25998;46.604;13.610;2023-05-21T01:52:28;15.13;;;13.63;;
40286;SDS011;25998;46.604;13.610;2023-05-21T01:55:38;14.57;;;13.07;;
40286;SDS011;25998;46.604;13.610;2023-05-21T01:58:51;14.65;;;13.10;;
40286;SDS011;25998;46.604;13.610;2023-05-21T02:02:02;14.57;;;12.95;;
40286;SDS011;25998;46.604;13.610;2023-05-21T02:05:13;14.40;;;12.95;;
40286;SDS011;25998;46.604;13.610;2023-05-21T02:08:24;14.27;;;12.88;;
40286;SDS011;25998;46.604;13.610;2023-05-21T02:11:36;13.23;;;11.50;;
40286;SDS011;25998;46.604;13.610;2023-05-21T02:14:47;13.45;;;12.10;;
40286;SDS011;25998;46.604;13.610;2023-05-21T02:17:59;13.98;;;12.43;;
40286;SDS011;25998;46.604;13.610;2023-05-21T02:21:10;13.05;;;11.80;;
40286;SDS011;25998;46.604;13.610;2023-05-21T02:24:21;17.77;;;13.00;;
40286;SDS011;25998;46.604;13.610;2023-05-21T02:27:34;13.63;;;12.23;;
40286;SDS011;25998;46.604;13.610;2023-05-21T02:30:45;14.25;;;12.80;;
40286;SDS011;25998;46.604;13.610;2023-05-21T02:33:56;13.85;;;12.48;;
40286;SDS011;25998;46.604;13.610;2023-05-21T02:37:07;14.18;;;12.48;;
40286;SDS011;25998;46.604;13.610;2023-05-21T02:40:19;14.20;;;12.20;;
40286;SDS011;25998;46.604;13.610;2023-05-21T02:43:30;14.77;;;13.23;;
40286;SDS011;25998;46.604;13.610;2023-05-21T02:46:40;13.80;;;12.40;;
40286;SDS011;25998;46.604;13.610;2023-05-21T02:49:51;17.30;;;13.63;;
40286;SDS011;25998;46.604;13.610;2023-05-21T02:53:02;14.38;;;12.88;;
40286;SDS011;25998;46.604;13.610;2023-05-21T02:56:13;15.65;;;13.30;;
40286;SDS011;25998;46.604;13.610;2023-05-21T02:59:24;13.80;;;12.50;;
40286;SDS011;25998;46.604;13.610;2023-05-21T03:02:35;15.23;;;13.65;;
40286;SDS011;25998;46.604;13.610;2023-05-21T03:05:46;13.82;;;12.52;;
40286;SDS011;25998;46.604;13.610;2023-05-21T03:08:57;16.33;;;14.00;;
40286;SDS011;25998;46.604;13.610;2023-05-21T03:12:08;14.15;;;12.77;;
40286;SDS011;25998;46.604;13.610;2023-05-21T03:15:20;17.17;;;12.38;;
40286;SDS011;25998;46.604;13.610;2023-05-21T03:18:32;15.27;;;13.25;;
40286;SDS011;25998;46.604;13.610;2023-05-21T03:21:43;17.73;;;12.73;;
40286;SDS011;25998;46.604;13.610;2023-05-21T03:24:54;14.25;;;12.75;;
40286;SDS011;25998;46.604;13.610;2023-05-21T03:28:05;13.40;;;12.05;;
40286;SDS011;25998;46.604;13.610;2023-05-21T03:31:16;12.52;;;11.25;;
40286;SDS011;25998;46.604;13.610;2023-05-21T03:34:26;15.60;;;12.40;;
40286;SDS011;25998;46.604;13.610;2023-05-21T03:37:38;14.48;;;12.75;;
40286;SDS011;25998;46.604;13.610;2023-05-21T03:40:48;12.43;;;11.23;;
40286;SDS011;25998;46.604;13.610;2023-05-21T03:44:01;15.93;;;12.70;;
40286;SDS011;25998;46.604;13.610;2023-05-21T03:47:12;13.07;;;10.48;;
40286;SDS011;25998;46.604;13.610;2023-05-21T03:50:23;14.07;;;11.88;;
40286;SDS011;25998;46.604;13.610;2023-05-21T03:53:35;13.10;;;11.60;;
40286;SDS011;25998;46.604;13.610;2023-05-21T03:56:46;15.65;;;13.60;;
40286;SDS011;25998;46.604;13.610;2023-05-21T03:59:57;14.40;;;12.90;;
40286;SDS011;25998;46.604;13.610;2023-05-21T04:03:08;14.77;;;13.27;;
40286;SDS011;25998;46.604;13.610;2023-05-21T04:06:20;15.35;;;13.30;;
40286;SDS011;25998;46.604;13.610;2023-05-21T04:09:31;16.60;;;14.30;;
40286;SDS011;25998;46.604;13.610;2023-05-21T04:12:42;15.30;;;13.80;;
40286;SDS011;25998;46.604;13.610;2023-05-21T04:15:53;15.52;;;14.02;;
40286;SDS011;25998;46.604;13.610;2023-05-21T04:19:05;16.10;;;12.82;;
40286;SDS011;25998;46.604;13.610;2023-05-21T04:22:16;16.70;;;12.90;;
40286;SDS011;25998;46.604;13.610;2023-05-21T04:25:26;13.38;;;11.95;;
40286;SDS011;25998;46.604;13.610;2023-05-21T04:28:37;28.73;;;19.70;;
40286;SDS011;25998;46.604;13.610;2023-05-21T04:31:51;15.38;;;13.65;;
40286;SDS011;25998;46.604;13.610;2023-05-21T04:35:02;16.65;;;13.77;;
40286;SDS011;25998;46.604;13.610;2023-05-21T04:38:13;15.93;;;12.60;;
40286;SDS011;25998;46.604;13.610;2023-05-21T04:41:28;15.07;;;13.35;;
40286;SDS011;25998;46.604;13.610;2023-05-21T04:44:39;14.52;;;13.07;;
40286;SDS011;25998;46.604;13.610;2023-05-21T04:47:50;13.18;;;11.77;;
40286;SDS011;25998;46.604;13.610;2023-05-21T04:51:01;16.27;;;14.32;;
40286;SDS011;25998;46.604;13.610;2023-05-21T04:54:14;15.82;;;14.27;;
40286;SDS011;25998;46.604;13.610;2023-05-21T04:57:25;16.23;;;14.25;;
40286;SDS011;25998;46.604;13.610;2023-05-21T05:00:37;14.32;;;12.90;;
40286;SDS011;25998;46.604;13.610;2023-05-21T05:03:51;14.45;;;12.95;;
40286;SDS011;25998;46.604;13.610;2023-05-21T05:07:02;15.07;;;13.32;;
40286;SDS011;25998;46.604;13.610;2023-05-21T05:10:13;13.48;;;12.07;;
40286;SDS011;25998;46.604;13.610;2023-05-21T05:13:24;14.40;;;13.00;;
40286;SDS011;25998;46.604;13.610;2023-05-21T05:16:35;15.25;;;13.75;;
40286;SDS011;25998;46.604;13.610;2023-05-21T05:19:46;15.00;;;13.43;;
40286;SDS011;25998;46.604;13.610;2023-05-21T05:22:57;14.38;;;12.98;;
40286;SDS011;25998;46.604;13.610;2023-05-21T05:26:07;14.32;;;12.82;;
40286;SDS011;25998;46.604;13.610;2023-05-21T05:29:20;14.68;;;13.35;;
40286;SDS011;25998;46.604;13.610;2023-05-21T05:32:30;13.90;;;12.48;;
40286;SDS011;25998;46.604;13.610;2023-05-21T05:35:41;14.93;;;13.43;;
40286;SDS011;25998;46.604;13.610;2023-05-21T05:38:52;15.85;;;14.25;;
40286;SDS011;25998;46.604;13.610;2023-05-21T05:42:03;17.75;;;15.80;;
40286;SDS011;25998;46.604;13.610;2023-05-21T05:45:14;14.48;;;13.07;;
40286;SDS011;25998;46.604;13.610;2023-05-21T05:48:25;14.38;;;12.07;;
40286;SDS011;25998;46.604;13.610;2023-05-21T05:51:36;12.98;;;11.75;;
40286;SDS011;25998;46.604;13.610;2023-05-21T05:54:46;13.50;;;12.20;;
40286;SDS011;25998;46.604;13.610;2023-05-21T05:57:57;13.57;;;12.10;;
40286;SDS011;25998;46.604;13.610;2023-05-21T06:01:08;13.30;;;11.90;;
40286;SDS011;25998;46.604;13.610;2023-05-21T06:04:19;12.55;;;11.40;;
40286;SDS011;25998;46.604;13.610;2023-05-21T06:07:30;13.23;;;11.93;;
40286;SDS011;25998;46.604;13.610;2023-05-21T06:10:41;14.40;;;12.90;;
40286;SDS011;25998;46.604;13.610;2023-05-21T06:13:52;14.10;;;12.60;;
40286;SDS011;25998;46.604;13.610;2023-05-21T06:17:03;13.38;;;12.05;;
40286;SDS011;25998;46.604;13.610;2023-05-21T06:20:14;14.73;;;13.18;;
40286;SDS011;25998;46.604;13.610;2023-05-21T06:23:25;13.75;;;12.45;;
40286;SDS011;25998;46.604;13.610;2023-05-21T06:26:36;11.77;;;10.57;;
40286;SDS011;25998;46.604;13.610;2023-05-21T06:29:47;12.98;;;11.43;;
40286;SDS011;25998;46.604;13.610;2023-05-21T06:32:58;12.20;;;10.98;;
40286;SDS011;25998;46.604;13.610;2023-05-21T06:36:08;12.02;;;10.65;;
40286;SDS011;25998;46.604;13.610;2023-05-21T06:39:19;12.00;;;10.90;;
40286;SDS011;25998;46.604;13.610;2023-05-21T06:42:31;12.75;;;11.25;;
40286;SDS011;25998;46.604;13.610;2023-05-21T06:45:41;11.90;;;10.68;;
40286;SDS011;25998;46.604;13.610;2023-05-21T06:48:52;11.18;;;9.88;;
40286;SDS011;25998;46.604;13.610;2023-05-21T06:52:03;12.63;;;10.73;;
40286;SDS011;25998;46.604;13.610;2023-05-21T06:55:14;11.55;;;9.88;;
40286;SDS011;25998;46.604;13.610;2023-05-21T06:58:25;10.63;;;9.25;;
40286;SDS011;25998;46.604;13.610;2023-05-21T07:01:40;11.80;;;10.60;;
40286;SDS011;25998;46.604;13.610;2023-05-21T07:04:53;10.68;;;9.68;;
40286;SDS011;25998;46.604;13.610;2023-05-21T07:08:04;10.98;;;9.95;;
40286;SDS011;25998;46.604;13.610;2023-05-21T07:11:15;11.50;;;9.90;;
40286;SDS011;25998;46.604;13.610;2023-05-21T07:14:26;10.98;;;10.02;;
40286;SDS011;25998;46.604;13.610;2023-05-21T07:17:37;11.05;;;9.95;;
40286;SDS011;25998;46.604;13.610;2023-05-21T07:20:48;11.65;;;10.05;;
40286;SDS011;25998;46.604;13.610;2023-05-21T07:23:59;11.52;;;10.43;;
40286;SDS011;25998;46.604;13.610;2023-05-21T07:27:09;11.38;;;10.27;;
40286;SDS011;25998;46.604;13.610;2023-05-21T07:30:20;11.98;;;10.48;;
40286;SDS011;25998;46.604;13.610;2023-05-21T07:33:31;11.63;;;10.35;;
40286;SDS011;25998;46.604;13.610;2023-05-21T07:36:42;11.05;;;10.02;;
40286;SDS011;25998;46.604;13.610;2023-05-21T07:39:53;12.07;;;10.40;;
40286;SDS011;25998;46.604;13.610;2023-05-21T07:43:07;11.77;;;10.57;;
40286;SDS011;25998;46.604;13.610;2023-05-21T07:46:18;10.65;;;9.57;;
40286;SDS011;25998;46.604;13.610;2023-05-21T07:49:29;9.95;;;8.95;;
40286;SDS011;25998;46.604;13.610;2023-05-21T07:52:40;11.10;;;9.98;;
40286;SDS011;25998;46.604;13.610;2023-05-21T07:55:51;10.10;;;9.10;;
40286;SDS011;25998;46.604;13.610;2023-05-21T07:59:01;10.20;;;9.20;;
40286;SDS011;25998;46.604;13.610;2023-05-21T08:02:12;12.88;;;10.15;;
40286;SDS011;25998;46.604;13.610;2023-05-21T08:05:23;12.82;;;9.95;;
40286;SDS011;25998;46.604;13.610;2023-05-21T08:08:34;10.45;;;9.45;;
40286;SDS011;25998;46.604;13.610;2023-05-21T08:11:45;11.48;;;9.88;;
40286;SDS011;25998;46.604;13.610;2023-05-21T08:14:56;10.93;;;9.82;;
40286;SDS011;25998;46.604;13.610;2023-05-21T08:18:08;11.15;;;9.18;;
40286;SDS011;25998;46.604;13.610;2023-05-21T08:21:21;10.27;;;9.27;;
40286;SDS011;25998;46.604;13.610;2023-05-21T08:24:32;10.52;;;9.52;;
40286;SDS011;25998;46.604;13.610;2023-05-21T08:27:43;11.20;;;9.85;;
40286;SDS011;25998;46.604;13.610;2023-05-21T08:30:53;11.25;;;10.15;;
40286;SDS011;25998;46.604;13.610;2023-05-21T08:34:04;10.02;;;9.13;;
40286;SDS011;25998;46.604;13.610;2023-05-21T08:37:15;10.90;;;9.85;;
40286;SDS011;25998;46.604;13.610;2023-05-21T08:40:28;10.10;;;9.10;;
40286;SDS011;25998;46.604;13.610;2023-05-21T08:43:39;11.13;;;10.02;;
40286;SDS011;25998;46.604;13.610;2023-05-21T08:46:51;12.00;;;10.40;;
40286;SDS011;25998;46.604;13.610;2023-05-21T08:50:04;10.73;;;9.73;;
40286;SDS011;25998;46.604;13.610;2023-05-21T08:53:19;11.52;;;10.18;;
40286;SDS011;25998;46.604;13.610;2023-05-21T08:56:33;10.98;;;9.73;;
40286;SDS011;25998;46.604;13.610;2023-05-21T08:59:44;10.55;;;9.55;;
40286;SDS011;25998;46.604;13.610;2023-05-21T09:02:57;11.00;;;9.90;;
40286;SDS011;25998;46.604;13.610;2023-05-21T09:06:10;10.23;;;9.02;;
40286;SDS011;25998;46.604;13.610;2023-05-21T09:09:38;10.93;;;9.82;;
40286;SDS011;25998;46.604;13.610;2023-05-21T09:13:00;10.50;;;9.40;;
40286;SDS011;25998;46.604;13.610;2023-05-21T09:16:12;10.27;;;9.25;;
40286;SDS011;25998;46.604;13.610;2023-05-21T09:19:22;13.68;;;10.13;;
40286;SDS011;25998;46.604;13.610;2023-05-21T09:22:34;11.30;;;9.80;;
40286;SDS011;25998;46.604;13.610;2023-05-21T09:25:55;11.57;;;9.63;;
40286;SDS011;25998;46.604;13.610;2023-05-21T09:29:06;13.07;;;10.30;;
40286;SDS011;25998;46.604;13.610;2023-05-21T09:32:17;10.10;;;9.20;;
40286;SDS011;25998;46.604;13.610;2023-05-21T09:35:28;10.85;;;9.63;;
40286;SDS011;25998;46.604;13.610;2023-05-21T09:38:38;11.52;;;10.30;;
40286;SDS011;25998;46.604;13.610;2023-05-21T09:41:49;10.73;;;9.63;;
40286;SDS011;25998;46.604;13.610;2023-05-21T09:45:00;10.10;;;9.15;;
40286;SDS011;25998;46.604;13.610;2023-05-21T09:48:12;11.55;;;9.07;;
40286;SDS011;25998;46.604;13.610;2023-05-21T09:51:23;10.55;;;8.90;;
40286;SDS011;25998;46.604;13.610;2023-05-21T09:54:34;10.23;;;9.23;;
40286;SDS011;25998;46.604;13.610;2023-05-21T09:57:45;9.65;;;8.60;;
40286;SDS011;25998;46.604;13.610;2023-05-21T10:00:57;10.63;;;8.48;;
40286;SDS011;25998;46.604;13.610;2023-05-21T10:04:08;9.82;;;8.82;;
40286;SDS011;25998;46.604;13.610;2023-05-21T10:07:20;10.63;;;8.40;;
40286;SDS011;25998;46.604;13.610;2023-05-21T10:10:37;11.20;;;9.20;;
40286;SDS011;25998;46.604;13.610;2023-05-21T10:13:55;9.48;;;8.48;;
40286;SDS011;25998;46.604;13.610;2023-05-21T10:17:10;9.90;;;9.00;;
40286;SDS011;25998;46.604;13.610;2023-05-21T10:20:22;9.82;;;8.93;;
40286;SDS011;25998;46.604;13.610;2023-05-21T10:23:36;9.38;;;8.40;;
40286;SDS011;25998;46.604;13.610;2023-05-21T10:26:48;9.32;;;8.43;;
40286;SDS011;25998;46.604;13.610;2023-05-21T10:29:59;9.05;;;8.15;;
40286;SDS011;25998;46.604;13.610;2023-05-21T10:33:14;8.57;;;7.75;;
40286;SDS011;25998;46.604;13.610;2023-05-21T10:36:26;9.70;;;7.70;;
40286;SDS011;25998;46.604;13.610;2023-05-21T10:39:43;9.75;;;7.68;;
40286;SDS011;25998;46.604;13.610;2023-05-21T10:43:05;9.07;;;7.75;;
40286;SDS011;25998;46.604;13.610;2023-05-21T10:46:39;7.88;;;7.18;;
40286;SDS011;25998;46.604;13.610;2023-05-21T10:50:19;7.20;;;6.47;;
40286;SDS011;25998;46.604;13.610;2023-05-21T11:00:29;8.48;;;7.00;;
40286;SDS011;25998;46.604;13.610;2023-05-21T11:03:41;8.18;;;7.32;;
40286;SDS011;25998;46.604;13.610;2023-05-21T11:06:52;8.20;;;7.30;;
40286;SDS011;25998;46.604;13.610;2023-05-21T11:13:44;7.55;;;6.82;;
40286;SDS011;25998;46.604;13.610;2023-05-21T11:17:48;9.40;;;7.20;;
40286;SDS011;25998;46.604;13.610;2023-05-21T11:24:01;9.20;;;7.43;;
40286;SDS011;25998;46.604;13.610;2023-05-21T11:27:29;8.00;;;7.00;;
40286;SDS011;25998;46.604;13.610;2023-05-21T11:30:55;8.40;;;7.45;;
40286;SDS011;25998;46.604;13.610;2023-05-21T11:34:42;8.95;;;7.75;;
40286;SDS011;25998;46.604;13.610;2023-05-21T11:37:57;8.00;;;7.20;;
40286;SDS011;25998;46.604;13.610;2023-05-21T11:41:08;9.43;;;8.35;;
40286;SDS011;25998;46.604;13.610;2023-05-21T11:47:55;7.60;;;6.90;;
40286;SDS011;25998;46.604;13.610;2023-05-21T11:51:06;8.75;;;6.65;;
40286;SDS011;25998;46.604;13.610;2023-05-21T11:54:17;7.68;;;6.80;;
40286;SDS011;25998;46.604;13.610;2023-05-21T11:57:28;7.80;;;7.00;;
40286;SDS011;25998;46.604;13.610;2023-05-21T12:00:42;8.32;;;6.75;;
40286;SDS011;25998;46.604;13.610;2023-05-21T12:03:53;11.27;;;6.90;;
40286;SDS011;25998;46.604;13.610;2023-05-21T12:07:04;9.48;;;6.22;;
40286;SDS011;25998;46.604;13.610;2023-05-21T12:10:24;7.28;;;6.55;;
40286;SDS011;25998;46.604;13.610;2023-05-21T12:13:35;9.05;;;6.47;;
40286;SDS011;25998;46.604;13.610;2023-05-21T12:16:47;7.65;;;6.85;;
40286;SDS011;25998;46.604;13.610;2023-05-21T12:19:57;8.57;;;6.68;;
40286;SDS011;25998;46.604;13.610;2023-05-21T12:23:19;7.20;;;6.38;;
40286;SDS011;25998;46.604;13.610;2023-05-21T12:26:33;8.25;;;7.03;;
40286;SDS011;25998;46.604;13.610;2023-05-21T12:29:44;8.43;;;6.50;;
40286;SDS011;25998;46.604;13.610;2023-05-21T12:32:57;8.73;;;6.35;;
40286;SDS011;25998;46.604;13.610;2023-05-21T12:36:08;7.72;;;6.43;;
40286;SDS011;25998;46.604;13.610;2023-05-21T12:39:19;8.60;;;6.63;;
40286;SDS011;25998;46.604;13.610;2023-05-21T12:42:31;8.07;;;6.88;;
40286;SDS011;25998;46.604;13.610;2023-05-21T12:45:45;8.05;;;7.18;;
40286;SDS011;25998;46.604;13.610;2023-05-21T12:48:56;7.65;;;6.85;;
40286;SDS011;25998;46.604;13.610;2023-05-21T12:52:08;7.32;;;6.63;;
40286;SDS011;25998;46.604;13.610;2023-05-21T12:55:23;9.45;;;7.70;;
40286;SDS011;25998;46.604;13.610;2023-05-21T12:58:37;8.77;;;7.38;;
40286;SDS011;25998;46.604;13.610;2023-05-21T13:01:50;8.77;;;7.50;;
40286;SDS011;25998;46.604;13.610;2023-05-21T13:05:03;8.23;;;6.95;;
40286;SDS011;25998;46.604;13.610;2023-05-21T13:08:15;8.00;;;6.40;;
40286;SDS011;25998;46.604;13.610;2023-05-21T13:11:26;7.15;;;6.22;;
40286;SDS011;25998;46.604;13.610;2023-05-21T13:14:37;6.30;;;5.28;;
40286;SDS011;25998;46.604;13.610;2023-05-21T13:17:48;7.78;;;6.45;;
40286;SDS011;25998;46.604;13.610;2023-05-21T13:20:59;7.95;;;6.50;;
40286;SDS011;25998;46.604;13.610;2023-05-21T13:24:10;7.43;;;6.60;;
40286;SDS011;25998;46.604;13.610;2023-05-21T13:27:20;6.63;;;6.00;;
40286;SDS011;25998;46.604;13.610;2023-05-21T13:30:31;7.07;;;6.20;;
40286;SDS011;25998;46.604;13.610;2023-05-21T13:33:42;9.57;;;6.22;;
40286;SDS011;25998;46.604;13.610;2023-05-21T13:36:53;7.93;;;6.88;;
40286;SDS011;25998;46.604;13.610;2023-05-21T13:40:05;9.88;;;7.50;;
40286;SDS011;25998;46.604;13.610;2023-05-21T13:43:17;8.85;;;6.45;;
40286;SDS011;25998;46.604;13.610;2023-05-21T13:46:28;9.65;;;6.53;;
40286;SDS011;25998;46.604;13.610;2023-05-21T13:49:38;7.57;;;5.43;;
40286;SDS011;25998;46.604;13.610;2023-05-21T13:52:52;21.98;;;19.73;;
40286;SDS011;25998;46.604;13.610;2023-05-21T13:56:03;8.23;;;7.32;;
40286;SDS011;25998;46.604;13.610;2023-05-21T13:59:14;7.10;;;6.25;;
40286;SDS011;25998;46.604;13.610;2023-05-21T14:02:25;8.75;;;6.45;;
40286;SDS011;25998;46.604;13.610;2023-05-21T14:05:37;7.40;;;6.45;;
40286;SDS011;25998;46.604;13.610;2023-05-21T14:08:48;6.68;;;6.07;;
40286;SDS011;25998;46.604;13.610;2023-05-21T14:11:59;6.72;;;6.07;;
40286;SDS011;25998;46.604;13.610;2023-05-21T14:15:10;7.80;;;5.85;;
40286;SDS011;25998;46.604;13.610;2023-05-21T14:18:21;7.43;;;6.20;;
40286;SDS011;25998;46.604;13.610;2023-05-21T14:21:32;7.47;;;6.00;;
40286;SDS011;25998;46.604;13.610;2023-05-21T14:24:43;7.07;;;6.13;;
40286;SDS011;25998;46.604;13.610;2023-05-21T14:27:55;6.75;;;6.05;;
40286;SDS011;25998;46.604;13.610;2023-05-21T14:31:06;7.32;;;5.78;;
40286;SDS011;25998;46.604;13.610;2023-05-21T14:34:17;7.32;;;6.40;;
40286;SDS011;25998;46.604;13.610;2023-05-21T14:37:28;7.05;;;5.25;;
40286;SDS011;25998;46.604;13.610;2023-05-21T14:40:39;6.65;;;5.85;;
40286;SDS011;25998;46.604;13.610;2023-05-21T14:43:50;12.23;;;5.90;;
40286;SDS011;25998;46.604;13.610;2023-05-21T14:47:01;7.18;;;6.50;;
40286;SDS011;25998;46.604;13.610;2023-05-21T14:50:12;7.38;;;6.47;;
40286;SDS011;25998;46.604;13.610;2023-05-21T14:53:24;7.53;;;6.45;;
40286;SDS011;25998;46.604;13.610;2023-05-21T14:56:34;8.65;;;6.40;;
40286;SDS011;25998;46.604;13.610;2023-05-21T14:59:45;7.07;;;6.03;;
40286;SDS011;25998;46.604;13.610;2023-05-21T15:02:56;7.80;;;6.63;;
40286;SDS011;25998;46.604;13.610;2023-05-21T15:06:07;7.07;;;5.72;;
40286;SDS011;25998;46.604;13.610;2023-05-21T15:09:18;6.80;;;6.07;;
40286;SDS011;25998;46.604;13.610;2023-05-21T15:12:29;7.97;;;6.72;;
40286;SDS011;25998;46.604;13.610;2023-05-21T15:15:40;7.15;;;6.45;;
40286;SDS011;25998;46.604;13.610;2023-05-21T15:18:51;8.40;;;5.93;;
40286;SDS011;25998;46.604;13.610;2023-05-21T15:22:03;7.13;;;6.15;;
40286;SDS011;25998;46.604;13.610;2023-05-21T15:25:13;6.50;;;5.80;;
40286;SDS011;25998;46.604;13.610;2023-05-21T15:28:28;7.03;;;5.30;;
40286;SDS011;25998;46.604;13.610;2023-05-21T15:31:38;7.30;;;5.20;;
40286;SDS011;25998;46.604;13.610;2023-05-21T15:34:49;6.85;;;5.15;;
40286;SDS011;25998;46.604;13.610;2023-05-21T15:38:00;8.52;;;5.38;;
40286;SDS011;25998;46.604;13.610;2023-05-21T15:41:11;6.75;;;5.57;;
40286;SDS011;25998;46.604;13.610;2023-05-21T15:44:23;6.45;;;5.28;;
40286;SDS011;25998;46.604;13.610;2023-05-21T15:47:34;5.60;;;5.00;;
40286;SDS011;25998;46.604;13.610;2023-05-21T15:50:45;8.10;;;5.28;;
40286;SDS011;25998;46.604;13.610;2023-05-21T15:53:56;6.03;;;5.35;;
40286;SDS011;25998;46.604;13.610;2023-05-21T15:57:07;6.25;;;5.32;;
40286;SDS011;25998;46.604;13.610;2023-05-21T16:00:18;5.63;;;5.03;;
40286;SDS011;25998;46.604;13.610;2023-05-21T16:03:29;8.20;;;5.60;;
40286;SDS011;25998;46.604;13.610;2023-05-21T16:06:40;7.38;;;5.78;;
40286;SDS011;25998;46.604;13.610;2023-05-21T16:09:50;7.00;;;5.65;;
40286;SDS011;25998;46.604;13.610;2023-05-21T16:13:01;7.85;;;5.78;;
40286;SDS011;25998;46.604;13.610;2023-05-21T16:16:12;5.97;;;5.40;;
40286;SDS011;25998;46.604;13.610;2023-05-21T16:19:23;7.55;;;5.38;;
40286;SDS011;25998;46.604;13.610;2023-05-21T16:22:34;6.00;;;5.18;;
40286;SDS011;25998;46.604;13.610;2023-05-21T16:25:45;6.53;;;5.32;;
40286;SDS011;25998;46.604;13.610;2023-05-21T16:28:56;6.45;;;5.47;;
40286;SDS011;25998;46.604;13.610;2023-05-21T16:32:07;7.95;;;5.32;;
40286;SDS011;25998;46.604;13.610;2023-05-21T16:35:19;6.65;;;6.05;;
40286;SDS011;25998;46.604;13.610;2023-05-21T16:38:30;6.97;;;6.05;;
40286;SDS011;25998;46.604;13.610;2023-05-21T16:41:41;7.90;;;6.72;;
40286;SDS011;25998;46.604;13.610;2023-05-21T16:44:55;8.63;;;6.93;;
40286;SDS011;25998;46.604;13.610;2023-05-21T16:48:06;9.00;;;6.60;;
40286;SDS011;25998;46.604;13.610;2023-05-21T16:51:17;7.55;;;6.45;;
40286;SDS011;25998;46.604;13.610;2023-05-21T16:54:28;9.00;;;7.18;;
40286;SDS011;25998;46.604;13.610;2023-05-21T16:57:39;7.30;;;6.30;;
40286;SDS011;25998;46.604;13.610;2023-05-21T17:00:50;7.63;;;6.80;;
40286;SDS011;25998;46.604;13.610;2023-05-21T17:04:01;7.95;;;6.60;;
40286;SDS011;25998;46.604;13.610;2023-05-21T17:07:11;7.65;;;6.40;;
40286;SDS011;25998;46.604;13.610;2023-05-21T17:10:24;9.77;;;7.20;;
40286;SDS011;25998;46.604;13.610;2023-05-21T17:13:35;9.27;;;6.82;;
40286;SDS011;25998;46.604;13.610;2023-05-21T17:16:46;7.57;;;6.43;;
40286;SDS011;25998;46.604;13.610;2023-05-21T17:19:56;10.00;;;6.93;;
40286;SDS011;25998;46.604;13.610;2023-05-21T17:23:08;8.20;;;6.57;;
40286;SDS011;25998;46.604;13.610;2023-05-21T17:26:19;10.35;;;6.88;;
40286;SDS011;25998;46.604;13.610;2023-05-21T17:29:31;8.98;;;6.97;;
40286;SDS011;25998;46.604;13.610;2023-05-21T17:32:42;9.23;;;6.88;;
40286;SDS011;25998;46.604;13.610;2023-05-21T17:35:53;8.10;;;6.57;;
40286;SDS011;25998;46.604;13.610;2023-05-21T17:39:05;7.85;;;7.05;;
40286;SDS011;25998;46.604;13.610;2023-05-21T17:42:16;9.25;;;7.38;;
40286;SDS011;25998;46.604;13.610;2023-05-21T17:45:27;8.73;;;7.35;;
40286;SDS011;25998;46.604;13.610;2023-05-21T17:48:38;7.28;;;6.57;;
40286;SDS011;25998;46.604;13.610;2023-05-21T17:51:49;8.20;;;7.35;;
40286;SDS011;25998;46.604;13.610;2023-05-21T17:55:00;9.00;;;6.82;;
40286;SDS011;25998;46.604;13.610;2023-05-21T17:58:11;8.38;;;7.07;;
40286;SDS011;25998;46.604;13.610;2023-05-21T18:01:22;8.32;;;6.95;;
40286;SDS011;25998;46.604;13.610;2023-05-21T18:04:33;10.50;;;7.03;;
40286;SDS011;25998;46.604;13.610;2023-05-21T18:07:44;8.23;;;6.80;;
40286;SDS011;25998;46.604;13.610;2023-05-21T18:10:55;11.02;;;7.30;;
40286;SDS011;25998;46.604;13.610;2023-05-21T18:14:06;8.57;;;7.03;;
40286;SDS011;25998;46.604;13.610;2023-05-21T18:17:17;8.52;;;6.88;;
40286;SDS011;25998;46.604;13.610;2023-05-21T18:20:28;9.55;;;7.30;;
40286;SDS011;25998;46.604;13.610;2023-05-21T18:23:39;10.70;;;6.47;;
40286;SDS011;25998;46.604;13.610;2023-05-21T18:26:50;9.10;;;6.68;;
40286;SDS011;25998;46.604;13.610;2023-05-21T18:30:01;9.05;;;6.88;;
40286;SDS011;25998;46.604;13.610;2023-05-21T18:33:15;9.65;;;7.28;;
40286;SDS011;25998;46.604;13.610;2023-05-21T18:36:26;7.43;;;6.40;;
40286;SDS011;25998;46.604;13.610;2023-05-21T18:39:37;7.95;;;6.93;;
40286;SDS011;25998;46.604;13.610;2023-05-21T18:42:48;9.23;;;7.50;;
40286;SDS011;25998;46.604;13.610;2023-05-21T18:45:58;9.63;;;7.15;;
40286;SDS011;25998;46.604;13.610;2023-05-21T18:49:09;7.93;;;6.97;;
40286;SDS011;25998;46.604;13.610;2023-05-21T18:52:20;8.57;;;7.22;;
40286;SDS011;25998;46.604;13.610;2023-05-21T18:55:31;9.43;;;7.63;;
40286;SDS011;25998;46.604;13.610;2023-05-21T18:58:43;9.05;;;7.47;;